This is the latest recevied weather packets stored in our database for station/object C31FR-13. If no packets are shown the sender has not sent any weather packets the latest 10 day(s).
| Time | Temp. | Humidity | Pressure | Rain* | Wind** | Luminosity | Snow |
|---|---|---|---|---|---|---|---|
| 1777900563 | 13.89° C | 73% | 1012.6 hPa | - | - | - | - |
| 1777898162 | 15° C | 69% | 1012.2 hPa | - | - | - | - |
| 1777897863 | 15° C | 65% | 1012.1 hPa | - | - | - | - |
| 1777897562 | 15° C | 63% | 1012.1 hPa | - | - | - | - |
| 1777896962 | 15.56° C | 54% | 1011.5 hPa | - | - | - | - |
| 1777896662 | 16.11° C | 51% | 1011.4 hPa | - | - | - | - |
| 1777896363 | 16.67° C | 51% | 1011.3 hPa | - | - | - | - |
| 1777896062 | 16.67° C | 50% | 1011.3 hPa | - | - | - | - |
| 1777895763 | 16.67° C | 51% | 1011.4 hPa | - | - | - | - |
| 1777895462 | 16.67° C | 51% | 1011.5 hPa | - | - | - | - |
| 1777895163 | 16.67° C | 50% | 1011.4 hPa | - | - | - | - |
| 1777894863 | 16.67° C | 49% | 1011.2 hPa | - | - | - | - |
| 1777894563 | 16.67° C | 48% | 1011.4 hPa | - | - | - | - |
| 1777894263 | 16.67° C | 47% | 1011.4 hPa | - | - | - | - |
| 1777893963 | 16.67° C | 48% | 1011.6 hPa | - | - | - | - |
| 1777893663 | 17.22° C | 48% | 1011.6 hPa | - | - | - | - |
| 1777893367 | 16.67° C | 48% | 1011.8 hPa | - | - | - | - |
| 1777893063 | 16.67° C | 47% | 1011.8 hPa | - | - | - | - |
| 1777892763 | 16.67° C | 50% | 1012 hPa | - | - | - | - |
| 1777892463 | 16.67° C | 53% | 1012 hPa | - | - | - | - |
| 1777892163 | 16.67° C | 52% | 1012.1 hPa | - | - | - | - |
| 1777890963 | 16.11° C | 56% | 1012.3 hPa | - | - | - | - |
| 1777890663 | 16.11° C | 56% | 1012.4 hPa | - | - | - | - |
| 1777890362 | 16.11° C | 56% | 1012.4 hPa | - | - | - | - |
| 1777889762 | 16.11° C | 54% | 1012.5 hPa | - | - | - | - |
* Rain since midnight (hover to see other rain measurements)
** Current wind speed in m/s (hover to see current wind gust speed)